createdAt,value
2023-01-03T00:00:31.091Z,18.09
2023-01-03T00:03:18.487Z,18.11
2023-01-03T00:05:48.069Z,18.09
2023-01-03T00:08:15.673Z,18.11
2023-01-03T00:10:43.379Z,18.09
2023-01-03T00:13:10.681Z,18.09
2023-01-03T00:15:38.634Z,18.07
2023-01-03T00:18:06.128Z,18.08
2023-01-03T00:20:34.704Z,18.08
2023-01-03T00:23:02.265Z,18.06
2023-01-03T00:25:30.648Z,18.06
2023-01-03T00:27:58.252Z,18.06
2023-01-03T00:30:25.953Z,18.04
2023-01-03T00:32:53.209Z,18.04
2023-01-03T00:35:21.874Z,18.05
2023-01-03T00:37:49.102Z,18.03
2023-01-03T00:40:16.710Z,18.02
2023-01-03T00:43:02.331Z,18.01
2023-01-03T00:45:35.061Z,18.01
2023-01-03T00:48:02.951Z,18.01
2023-01-03T00:50:30.591Z,18.00
2023-01-03T00:52:57.986Z,18.01
2023-01-03T00:55:25.699Z,18.00
2023-01-03T00:57:53.182Z,17.99
2023-01-03T01:00:21.078Z,18.01
2023-01-03T01:02:48.486Z,17.99
2023-01-03T01:05:16.406Z,17.99
2023-01-03T01:07:43.734Z,17.99
2023-01-03T01:10:11.559Z,17.99
2023-01-03T01:12:39.213Z,17.98
2023-01-03T01:15:07.261Z,17.97
2023-01-03T01:17:34.802Z,17.97
2023-01-03T01:20:02.360Z,17.97
2023-01-03T01:22:29.774Z,17.96
2023-01-03T01:24:57.339Z,17.94
2023-01-03T01:27:24.682Z,17.94
2023-01-03T01:29:52.443Z,17.95
2023-01-03T01:32:19.787Z,17.93
2023-01-03T01:34:47.444Z,17.94
2023-01-03T01:37:14.863Z,17.92
2023-01-03T01:39:42.621Z,17.94
2023-01-03T01:42:31.851Z,17.93
2023-01-03T01:45:04.961Z,17.93
2023-01-03T01:47:53.419Z,17.93
2023-01-03T01:50:24.479Z,17.93
2023-01-03T01:52:54.999Z,17.92
2023-01-03T01:55:41.827Z,17.93
2023-01-03T01:58:09.946Z,17.92
2023-01-03T02:00:41.108Z,17.93
2023-01-03T02:03:08.706Z,17.91
2023-01-03T02:05:44.631Z,17.91
2023-01-03T02:08:12.100Z,17.90
2023-01-03T02:11:13.812Z,17.91
2023-01-03T02:13:51.044Z,17.90
2023-01-03T02:16:50.467Z,17.91
2023-01-03T02:19:38.926Z,17.89
2023-01-03T02:22:39.232Z,17.89
2023-01-03T02:25:44.151Z,17.88
2023-01-03T02:28:32.642Z,17.89
2023-01-03T02:31:08.939Z,17.88
2023-01-03T02:33:48.817Z,17.87
2023-01-03T02:36:22.908Z,17.88
2023-01-03T02:39:01.647Z,17.87
2023-01-03T02:41:44.778Z,17.86
2023-01-03T02:44:36.243Z,17.88
2023-01-03T02:47:12.163Z,17.87
2023-01-03T02:49:47.911Z,17.87
2023-01-03T02:52:21.553Z,17.87
2023-01-03T02:55:20.187Z,17.88
2023-01-03T02:57:56.323Z,17.89
2023-01-03T03:00:29.087Z,17.88
2023-01-03T03:03:00.691Z,17.88
2023-01-03T03:05:34.244Z,17.89
2023-01-03T03:08:01.604Z,17.89
2023-01-03T03:10:50.155Z,17.87
2023-01-03T03:13:31.439Z,17.89
2023-01-03T03:16:46.450Z,17.88
2023-01-03T03:19:43.404Z,17.88
2023-01-03T03:22:51.976Z,17.87
2023-01-03T03:25:26.760Z,17.88
2023-01-03T03:28:15.794Z,17.88
2023-01-03T03:30:46.254Z,17.89
2023-01-03T03:33:17.475Z,17.88
2023-01-03T03:35:54.671Z,17.88
2023-01-03T03:38:31.811Z,17.88
2023-01-03T03:41:40.031Z,17.87
2023-01-03T03:44:32.167Z,17.88
2023-01-03T03:47:07.744Z,17.88
2023-01-03T03:49:40.024Z,17.87
2023-01-03T03:52:16.044Z,17.87
2023-01-03T03:54:50.900Z,17.87
2023-01-03T03:57:29.229Z,17.87
2023-01-03T04:00:01.630Z,17.87
2023-01-03T04:02:32.236Z,17.86
2023-01-03T04:05:03.484Z,17.88
2023-01-03T04:07:30.921Z,17.87
2023-01-03T04:09:59.047Z,17.88
2023-01-03T04:12:26.495Z,17.88
2023-01-03T04:14:54.307Z,17.86
2023-01-03T04:17:21.630Z,17.87
2023-01-03T04:19:49.280Z,17.87
2023-01-03T04:22:16.718Z,17.87
2023-01-03T04:24:44.452Z,17.86
2023-01-03T04:27:11.681Z,17.87
2023-01-03T04:29:39.796Z,17.87
2023-01-03T04:32:08.245Z,17.87
2023-01-03T04:34:36.174Z,17.87
2023-01-03T04:37:03.530Z,17.86
2023-01-03T04:39:31.244Z,17.88
2023-01-03T04:41:58.671Z,17.87
2023-01-03T04:44:26.344Z,17.87
2023-01-03T04:46:53.778Z,17.86
2023-01-03T04:49:21.784Z,17.85
2023-01-03T04:51:49.347Z,17.86
2023-01-03T04:54:16.930Z,17.86
2023-01-03T04:56:44.322Z,17.85
2023-01-03T04:59:12.058Z,17.86
2023-01-03T05:01:39.439Z,17.86
2023-01-03T05:04:08.549Z,17.86
2023-01-03T05:06:36.759Z,17.85
2023-01-03T05:09:04.371Z,17.86
2023-01-03T05:11:31.765Z,17.85
2023-01-03T05:14:00.759Z,17.86
2023-01-03T05:16:28.336Z,17.86
2023-01-03T05:18:56.590Z,17.86
2023-01-03T05:21:42.391Z,17.84
2023-01-03T05:24:30.645Z,17.84
2023-01-03T05:27:00.639Z,17.85
2023-01-03T05:29:29.951Z,17.84
2023-01-03T05:31:57.510Z,17.86
2023-01-03T05:34:25.710Z,17.84
2023-01-03T05:36:53.163Z,17.85
2023-01-03T05:39:20.942Z,17.84
2023-01-03T05:42:00.706Z,17.85
2023-01-03T05:44:32.970Z,17.85
2023-01-03T05:47:02.540Z,17.87
2023-01-03T05:49:30.208Z,17.86
2023-01-03T05:51:57.568Z,17.87
2023-01-03T05:54:26.194Z,17.88
2023-01-03T05:56:53.503Z,17.88
2023-01-03T05:59:22.566Z,17.88
2023-01-03T06:01:50.618Z,17.88
2023-01-03T06:04:19.383Z,17.87
2023-01-03T06:06:46.702Z,17.87
2023-01-03T06:09:14.353Z,17.88
2023-01-03T06:11:41.725Z,17.86
2023-01-03T06:14:09.490Z,17.87
2023-01-03T06:16:55.570Z,17.87
2023-01-03T06:19:23.410Z,17.86
2023-01-03T06:21:50.803Z,17.85
2023-01-03T06:24:18.346Z,17.85
2023-01-03T06:26:46.052Z,17.86
2023-01-03T06:29:13.679Z,17.86
2023-01-03T06:31:41.710Z,17.85
2023-01-03T06:34:09.407Z,17.87
2023-01-03T06:36:37.370Z,17.84
2023-01-03T06:39:04.942Z,17.85
2023-01-03T06:41:32.318Z,17.85
2023-01-03T06:43:59.895Z,17.84
2023-01-03T06:46:46.292Z,17.85
2023-01-03T06:49:35.409Z,17.84
2023-01-03T06:52:24.375Z,17.84
2023-01-03T06:54:53.748Z,17.84
2023-01-03T06:57:26.514Z,17.83
2023-01-03T06:59:55.462Z,17.84
2023-01-03T07:02:23.347Z,17.84
2023-01-03T07:04:51.235Z,17.83
2023-01-03T07:07:18.562Z,17.83
2023-01-03T07:09:46.395Z,17.83
2023-01-03T07:12:49.468Z,17.82
2023-01-03T07:15:17.297Z,17.82
2023-01-03T07:17:44.570Z,17.82
2023-01-03T07:20:12.235Z,17.83
2023-01-03T07:22:39.487Z,17.82
2023-01-03T07:25:07.335Z,17.82
2023-01-03T07:27:34.645Z,17.81
2023-01-03T07:30:02.363Z,17.82
2023-01-03T07:32:29.692Z,17.81
2023-01-03T07:34:57.663Z,17.82
2023-01-03T07:37:25.145Z,17.82
2023-01-03T07:39:52.766Z,17.81
2023-01-03T07:42:38.774Z,17.82
2023-01-03T07:45:07.231Z,17.81
2023-01-03T07:47:34.721Z,17.82
2023-01-03T07:50:02.318Z,17.81
2023-01-03T07:52:29.734Z,17.80
2023-01-03T07:54:57.277Z,17.81
2023-01-03T07:57:24.634Z,17.80
2023-01-03T07:59:52.181Z,17.80
2023-01-03T08:02:20.413Z,17.80
2023-01-03T08:04:48.450Z,17.80
2023-01-03T08:07:16.035Z,17.80
2023-01-03T08:10:02.351Z,17.80
2023-01-03T08:12:48.534Z,17.80
2023-01-03T08:15:16.308Z,17.80
2023-01-03T08:17:44.354Z,17.80
2023-01-03T08:20:11.992Z,17.80
2023-01-03T08:22:39.332Z,17.80
2023-01-03T08:25:07.825Z,17.81
2023-01-03T08:27:35.115Z,17.80
2023-01-03T08:30:03.008Z,17.80
2023-01-03T08:32:33.256Z,17.81
2023-01-03T08:35:01.168Z,17.82
2023-01-03T08:37:28.874Z,17.82
2023-01-03T08:40:01.375Z,17.83
2023-01-03T08:42:29.878Z,17.83
2023-01-03T08:45:02.457Z,17.84
2023-01-03T08:47:30.451Z,17.83
2023-01-03T08:49:58.829Z,17.83
2023-01-03T08:52:30.211Z,17.84
2023-01-03T08:55:01.087Z,17.84
2023-01-03T08:57:28.520Z,17.84
2023-01-03T08:59:56.063Z,17.83
2023-01-03T09:02:23.675Z,17.84
2023-01-03T09:04:51.392Z,17.85
2023-01-03T09:07:18.867Z,17.84
2023-01-03T09:09:46.525Z,17.85
2023-01-03T09:12:14.065Z,17.83
2023-01-03T09:14:41.775Z,17.81
2023-01-03T09:17:09.318Z,17.81
2023-01-03T09:19:36.983Z,17.81
2023-01-03T09:22:04.431Z,17.79
2023-01-03T09:24:32.023Z,17.79
2023-01-03T09:26:59.587Z,17.79
2023-01-03T09:29:28.143Z,17.79
2023-01-03T09:31:55.779Z,17.79
2023-01-03T09:34:23.489Z,17.79
2023-01-03T09:36:50.871Z,17.79
2023-01-03T09:39:19.434Z,17.79
2023-01-03T09:42:07.256Z,17.79
2023-01-03T09:44:35.134Z,17.80
2023-01-03T09:47:03.373Z,17.79
2023-01-03T09:49:31.194Z,17.80
2023-01-03T09:52:27.590Z,17.80
2023-01-03T09:55:13.976Z,17.80
2023-01-03T09:57:59.904Z,17.79
2023-01-03T10:00:54.235Z,17.80
2023-01-03T10:03:51.450Z,17.80
2023-01-03T10:06:46.216Z,17.80
2023-01-03T10:09:34.684Z,17.79
2023-01-03T10:12:56.615Z,17.79
2023-01-03T10:15:43.935Z,17.79
2023-01-03T10:18:31.893Z,17.81
2023-01-03T10:21:09.327Z,17.80
2023-01-03T10:23:37.596Z,17.80
2023-01-03T10:26:12.097Z,17.80
2023-01-03T10:28:46.450Z,17.79
2023-01-03T10:31:28.116Z,17.80
2023-01-03T10:33:55.843Z,17.79
2023-01-03T10:36:23.441Z,17.79
2023-01-03T10:39:09.477Z,17.79
2023-01-03T10:41:43.319Z,17.80
2023-01-03T10:44:25.543Z,17.80
2023-01-03T10:46:55.994Z,17.80
2023-01-03T10:49:28.967Z,17.81
2023-01-03T10:52:18.584Z,17.80
2023-01-03T10:54:53.652Z,17.79
2023-01-03T10:57:59.286Z,17.81
2023-01-03T11:00:36.047Z,17.82
2023-01-03T11:03:12.548Z,17.80
2023-01-03T11:05:43.108Z,17.81
2023-01-03T11:08:37.969Z,17.81
2023-01-03T11:11:25.113Z,17.82
2023-01-03T11:13:52.517Z,17.82
2023-01-03T11:16:20.164Z,17.83
2023-01-03T11:19:05.888Z,17.83
2023-01-03T11:21:56.377Z,17.83
2023-01-03T11:24:45.964Z,17.84
2023-01-03T11:27:25.293Z,17.84
2023-01-03T11:30:01.436Z,17.84
2023-01-03T11:32:53.930Z,17.84
2023-01-03T11:35:39.582Z,17.83
2023-01-03T11:38:35.062Z,17.84
2023-01-03T11:41:24.241Z,17.83
2023-01-03T11:44:31.884Z,17.83
2023-01-03T11:47:08.295Z,17.82
2023-01-03T11:49:51.172Z,17.83
2023-01-03T11:52:54.804Z,17.83
2023-01-03T11:55:41.076Z,17.83
2023-01-03T11:58:14.182Z,17.82
2023-01-03T12:00:46.714Z,17.83
2023-01-03T12:03:50.651Z,17.83
2023-01-03T12:06:37.278Z,17.82
2023-01-03T12:09:27.361Z,17.83
2023-01-03T12:12:26.735Z,17.84
2023-01-03T12:15:16.111Z,17.83
2023-01-03T12:17:54.904Z,17.84
2023-01-03T12:20:27.508Z,17.82
2023-01-03T12:23:03.079Z,17.83
2023-01-03T12:25:37.981Z,17.83
2023-01-03T12:28:11.785Z,17.83
2023-01-03T12:30:57.303Z,17.82
2023-01-03T12:33:42.847Z,17.83
2023-01-03T12:36:40.809Z,17.83
2023-01-03T12:39:33.414Z,17.82
2023-01-03T12:42:25.880Z,17.82
2023-01-03T12:45:29.775Z,17.81
2023-01-03T12:48:14.214Z,17.81
2023-01-03T12:50:48.975Z,17.81
2023-01-03T12:53:30.867Z,17.81
2023-01-03T12:56:22.934Z,17.81
2023-01-03T12:59:12.416Z,17.80
2023-01-03T13:01:48.690Z,17.82
2023-01-03T13:04:24.069Z,17.82
2023-01-03T13:07:03.038Z,17.81
2023-01-03T13:09:45.182Z,17.80
2023-01-03T13:12:16.520Z,17.81
2023-01-03T13:14:53.127Z,17.81
2023-01-03T13:17:25.888Z,17.80
2023-01-03T13:19:56.197Z,17.79
2023-01-03T13:22:52.187Z,17.78
2023-01-03T13:25:39.905Z,17.79
2023-01-03T13:28:29.648Z,17.79
2023-01-03T13:31:18.592Z,17.78
2023-01-03T13:33:52.472Z,17.78
2023-01-03T13:36:20.758Z,17.78
